Atlanta, Georgia
Traffic Map
Current Weather Conditions
Atlanta, Georgia
Few Clouds
Few Clouds
64°
Feels Like: 64°
Wind Chill: 64° Ceiling: Unl
Heat Index: 64° Visibility: 10mi
Dew Point: 50° Wind: 0mph
Humidity: 60% Direction: ° ()
Pressure: 29.88in Gusts: 0mph
Raw Report DataKATL 242352Z 00000KT 10SM FEW250 18/10 A2988 RMK AO2 SLP114 T01780100 10244 20178 53023
Traffic Incident Summary
Active as of:
Severity:
Category:
InformationThere was an issue retrieving the traffic information for this location. Please try a different location or try again shortly.
Advertisements
Track Severe Weather on mobile